Time;durP1;ratioP1;P1;durP2;ratioP2;P2;SDS_P1;SDS_P2;PMS_P1;PMS_P2;Temp;Humidity;BMP_temperature;BMP_pressure;BME280_temperature;BME280_humidity;BME280_pressure;Samples;Min_cycle;Max_cycle;Signal;HPM_P1;HPM_P2
2022/12/24 00:00:33;;;;;;;60.75;9.77;;;11.10;99.90;;;;;;5035001;28;20104;-64
2022/12/24 00:02:58;;;;;;;53.15;9.18;;;11.10;99.90;;;;;;5035221;28;20094;-65
2022/12/24 00:05:24;;;;;;;55.80;7.13;;;11.00;99.90;;;;;;5034495;28;20474;-64
2022/12/24 00:07:50;;;;;;;51.33;7.25;;;11.00;99.90;;;;;;5032859;28;20021;-65
2022/12/24 00:10:16;;;;;;;59.05;6.72;;;10.80;99.90;;;;;;5033088;28;20579;-64
2022/12/24 00:12:42;;;;;;;50.45;6.70;;;10.90;99.90;;;;;;5035024;28;20028;-64
2022/12/24 00:15:08;;;;;;;32.05;5.78;;;10.90;99.90;;;;;;5035910;28;20131;-65
2022/12/24 00:17:34;;;;;;;38.00;7.10;;;10.70;99.90;;;;;;5036686;28;20124;-66
2022/12/24 00:20:00;;;;;;;42.40;5.95;;;10.80;99.90;;;;;;5036419;28;20060;-64
2022/12/24 00:22:26;;;;;;;59.35;6.57;;;10.80;99.90;;;;;;5036305;28;20137;-69
2022/12/24 00:24:52;;;;;;;62.83;9.32;;;10.80;99.90;;;;;;5037118;28;20022;-64
2022/12/24 00:27:17;;;;;;;60.80;8.25;;;10.80;99.90;;;;;;5036175;28;20033;-64
2022/12/24 00:29:43;;;;;;;61.80;8.18;;;10.80;99.90;;;;;;5052450;28;20100;-64
2022/12/24 00:32:09;;;;;;;74.95;10.15;;;10.80;99.90;;;;;;5035839;28;20112;-64
2022/12/24 00:34:36;;;;;;;51.45;6.90;;;10.80;99.90;;;;;;5035938;28;20040;-64
2022/12/24 00:37:03;;;;;;;46.45;8.43;;;10.90;99.90;;;;;;5034482;28;20037;-68
2022/12/24 00:39:29;;;;;;;59.55;9.00;;;11.00;99.90;;;;;;5034803;28;20025;-65
2022/12/24 00:41:55;;;;;;;62.35;7.78;;;11.00;99.90;;;;;;5034426;28;20033;-64
2022/12/24 00:44:21;;;;;;;39.13;5.93;;;11.00;99.90;;;;;;5034583;28;20033;-64
2022/12/24 00:46:47;;;;;;;68.38;9.52;;;11.00;99.90;;;;;;5034511;28;20048;-64
2022/12/24 00:49:14;;;;;;;41.15;7.55;;;11.00;99.90;;;;;;5034746;28;20014;-64
2022/12/24 00:51:39;;;;;;;47.83;9.23;;;11.00;99.90;;;;;;5034569;28;20033;-64
2022/12/24 00:54:06;;;;;;;49.58;7.72;;;11.00;99.90;;;;;;5034478;28;20105;-64
2022/12/24 00:56:33;;;;;;;55.75;8.07;;;11.20;99.90;;;;;;5034415;28;20125;-64
2022/12/24 00:58:59;;;;;;;51.47;8.48;;;11.10;99.90;;;;;;5033978;28;20032;-64
2022/12/24 01:01:25;;;;;;;48.85;7.68;;;11.10;99.90;;;;;;5034100;28;20017;-64
2022/12/24 01:05:08;;;;;;;46.20;7.65;;;11.10;99.90;;;;;;5034611;28;20102;-64
2022/12/24 01:06:38;;;;;;;53.15;9.10;;;11.10;99.90;;;;;;5021683;28;20032;-64
2022/12/24 01:09:04;;;;;;;51.63;9.00;;;11.10;99.90;;;;;;5034236;28;20492;-65
2022/12/24 01:11:30;;;;;;;55.47;9.60;;;11.10;99.90;;;;;;5034031;28;20022;-64
2022/12/24 01:13:55;;;;;;;54.28;6.72;;;11.20;99.90;;;;;;5033868;28;20025;-65
2022/12/24 01:16:21;;;;;;;50.85;7.78;;;11.10;99.90;;;;;;5033546;28;20397;-64
2022/12/24 01:18:47;;;;;;;55.50;8.20;;;11.20;99.90;;;;;;5033867;28;20436;-64
2022/12/24 01:21:14;;;;;;;43.83;7.57;;;11.20;99.90;;;;;;5033782;28;20043;-68
2022/12/24 01:23:39;;;;;;;48.65;8.13;;;11.20;99.90;;;;;;5033926;28;20017;-68
2022/12/24 01:26:05;;;;;;;46.03;7.88;;;11.20;99.90;;;;;;5033733;28;20484;-64
2022/12/24 01:28:32;;;;;;;45.05;7.65;;;11.10;99.90;;;;;;5033346;28;20359;-64
2022/12/24 01:30:58;;;;;;;37.05;7.20;;;11.10;99.90;;;;;;5033939;28;20041;-64
2022/12/24 01:33:27;;;;;;;40.42;7.05;;;11.20;99.90;;;;;;5033759;28;20397;-65
2022/12/24 01:35:53;;;;;;;43.55;7.20;;;11.20;99.90;;;;;;5033704;28;20058;-64
2022/12/24 01:38:19;;;;;;;40.38;6.20;;;11.30;99.90;;;;;;5033430;28;20422;-64
2022/12/24 01:43:31;;;;;;;42.50;6.50;;;11.30;99.90;;;;;;5033440;28;20033;-64
2022/12/24 01:46:32;;;;;;;34.10;5.68;;;11.30;99.90;;;;;;5033485;28;20072;-66
2022/12/24 01:49:00;;;;;;;35.45;5.18;;;11.30;99.90;;;;;;5011005;28;20065;-65
2022/12/24 01:51:34;;;;;;;33.03;5.95;;;11.20;99.90;;;;;;5033265;28;20100;-64
2022/12/24 01:54:06;;;;;;;29.17;5.95;;;11.30;99.90;;;;;;5033288;28;20064;-64
2022/12/24 01:56:35;;;;;;;40.53;6.22;;;11.20;99.90;;;;;;5033131;28;20029;-64
2022/12/24 01:59:05;;;;;;;40.50;6.40;;;11.30;99.90;;;;;;5033161;28;20026;-64
2022/12/24 02:01:31;;;;;;;26.95;4.85;;;11.20;99.90;;;;;;5033385;28;20029;-64
2022/12/24 02:03:57;;;;;;;20.10;4.45;;;11.20;99.90;;;;;;5032956;28;20029;-64
2022/12/24 02:06:24;;;;;;;32.00;4.50;;;11.30;99.90;;;;;;5032837;28;20034;-66
2022/12/24 02:08:50;;;;;;;30.42;5.97;;;11.20;99.90;;;;;;5033182;28;20088;-64
2022/12/24 02:11:19;;;;;;;30.05;4.95;;;11.20;99.90;;;;;;5027623;28;20485;-64
2022/12/24 02:13:56;;;;;;;33.45;5.50;;;11.20;99.90;;;;;;5023165;28;20026;-64
2022/12/24 02:16:27;;;;;;;19.55;3.67;;;11.10;99.90;;;;;;5037525;28;20128;-64
2022/12/24 02:19:14;;;;;;;38.90;5.15;;;11.10;99.90;;;;;;5018159;28;20033;-65
2022/12/24 02:21:45;;;;;;;24.92;4.38;;;11.20;99.90;;;;;;5016386;28;20033;-65
2022/12/24 02:24:27;;;;;;;30.73;5.90;;;11.10;99.90;;;;;;5013224;28;20050;-64
2022/12/24 02:26:59;;;;;;;23.40;5.22;;;11.20;99.90;;;;;;5012849;28;20374;-65
2022/12/24 02:29:44;;;;;;;29.98;5.07;;;11.20;99.90;;;;;;5012812;28;20029;-65
2022/12/24 02:32:17;;;;;;;35.03;5.47;;;11.20;99.90;;;;;;5012187;28;20033;-65
2022/12/24 02:35:22;;;;;;;43.70;5.57;;;11.20;99.90;;;;;;5016341;28;20105;-65
2022/12/24 02:38:01;;;;;;;24.13;4.88;;;11.20;99.90;;;;;;5002640;28;20046;-65
2022/12/24 02:40:37;;;;;;;34.38;6.25;;;11.10;99.90;;;;;;5041505;28;20080;-65
2022/12/24 02:43:12;;;;;;;24.60;4.50;;;11.10;99.90;;;;;;5051350;28;20487;-65
2022/12/24 02:45:40;;;;;;;41.80;6.03;;;11.10;99.90;;;;;;5049926;28;20124;-65
2022/12/24 02:48:07;;;;;;;49.70;6.57;;;11.20;99.90;;;;;;5050865;28;20500;-65
2022/12/24 02:50:34;;;;;;;39.05;5.30;;;11.20;99.90;;;;;;5039070;28;20033;-65
2022/12/24 02:53:00;;;;;;;47.20;7.72;;;11.20;99.90;;;;;;5032495;28;20078;-65
2022/12/24 02:55:56;;;;;;;48.33;8.25;;;11.30;99.90;;;;;;5032012;28;20034;-64
2022/12/24 02:58:21;;;;;;;48.83;7.38;;;11.30;99.90;;;;;;5032199;28;20025;-65
2022/12/24 03:01:17;;;;;;;47.97;7.85;;;11.30;99.90;;;;;;5032710;28;20543;-65
2022/12/24 03:03:58;;;;;;;43.15;6.40;;;11.30;99.90;;;;;;5048166;28;20124;-64
2022/12/24 03:06:32;;;;;;;;;;;11.20;99.90;;;;;;5033026;28;20456;-65
2022/12/24 03:09:13;;;;;;;45.08;5.95;;;11.30;99.90;;;;;;5031914;28;19956;-64
2022/12/24 03:11:45;;;;;;;53.53;7.13;;;11.40;99.90;;;;;;5032569;28;20023;-64
2022/12/24 03:14:11;;;;;;;;;;;11.40;99.90;;;;;;5032698;28;20025;-65
2022/12/24 03:16:37;;;;;;;48.17;7.70;;;11.30;99.90;;;;;;5032068;28;19916;-65
2022/12/24 03:19:04;;;;;;;34.33;5.35;;;11.40;99.90;;;;;;5034664;28;20072;-69
2022/12/24 03:21:34;;;;;;;41.47;5.75;;;11.30;99.90;;;;;;5036298;28;20057;-64
2022/12/24 03:24:00;;;;;;;38.45;6.68;;;11.30;99.90;;;;;;5035799;28;20033;-64
2022/12/24 03:26:28;;;;;;;61.85;6.55;;;11.40;99.90;;;;;;5035905;28;20087;-67
2022/12/24 03:28:54;;;;;;;45.72;8.02;;;11.40;99.90;;;;;;5035928;28;20139;-64
2022/12/24 03:31:20;;;;;;;42.53;7.93;;;11.40;99.90;;;;;;5034265;28;20025;-64
2022/12/24 03:33:47;;;;;;;35.50;6.50;;;11.30;99.90;;;;;;5036062;28;20468;-65
2022/12/24 03:36:13;;;;;;;28.73;4.57;;;11.30;99.90;;;;;;5035788;28;20037;-68
2022/12/24 03:38:39;;;;;;;36.15;5.30;;;11.30;99.90;;;;;;5035657;28;20040;-66
2022/12/24 03:41:05;;;;;;;28.38;5.28;;;11.30;99.90;;;;;;5035599;28;20030;-64
2022/12/24 03:43:31;;;;;;;47.05;6.82;;;11.30;99.90;;;;;;5035698;28;20022;-64
2022/12/24 03:45:57;;;;;;;28.15;4.30;;;11.20;99.90;;;;;;5035845;28;20518;-66
2022/12/24 03:48:23;;;;;;;29.20;5.60;;;11.10;99.90;;;;;;5035609;28;20022;-66
2022/12/24 03:50:48;;;;;;;46.75;6.78;;;11.10;99.90;;;;;;5035598;28;20477;-65
2022/12/24 03:53:14;;;;;;;44.97;6.78;;;11.10;99.90;;;;;;5035236;28;20029;-64
2022/12/24 03:55:40;;;;;;;35.65;5.40;;;11.10;99.90;;;;;;5035751;28;20022;-64
2022/12/24 03:58:06;;;;;;;34.72;5.53;;;11.00;99.90;;;;;;5035822;28;20492;-64
2022/12/24 04:00:32;;;;;;;34.15;6.80;;;11.10;99.90;;;;;;5035150;28;20025;-65
2022/12/24 04:02:57;;;;;;;37.70;6.00;;;11.10;99.90;;;;;;5035576;28;20033;-65
2022/12/24 04:05:23;;;;;;;46.08;7.43;;;11.20;99.90;;;;;;5033369;28;20068;-67
2022/12/24 04:07:49;;;;;;;32.80;5.82;;;11.10;99.90;;;;;;5035320;28;20424;-66
2022/12/24 04:10:16;;;;;;;35.88;7.07;;;11.10;99.90;;;;;;5035090;28;20029;-65
2022/12/24 04:12:41;;;;;;;33.08;4.53;;;11.00;99.90;;;;;;5035457;28;20033;-64
2022/12/24 04:15:08;;;;;;;36.25;5.57;;;11.10;99.90;;;;;;5035221;28;20029;-64
2022/12/24 04:17:34;;;;;;;38.30;5.60;;;11.10;99.90;;;;;;5035248;28;20068;-64
2022/12/24 04:19:59;;;;;;;28.67;4.38;;;11.10;99.90;;;;;;5035241;28;20045;-64
2022/12/24 04:22:25;;;;;;;40.53;5.45;;;11.00;99.90;;;;;;5034546;28;20093;-67
2022/12/24 04:24:51;;;;;;;44.90;6.65;;;11.00;99.90;;;;;;5035222;28;20469;-66
2022/12/24 04:27:17;;;;;;;41.17;6.18;;;11.00;99.90;;;;;;5034628;28;20564;-64
2022/12/24 04:29:43;;;;;;;42.42;6.32;;;11.00;99.90;;;;;;5034583;28;20056;-65
2022/12/24 04:32:09;;;;;;;24.40;4.63;;;11.10;99.90;;;;;;5018716;28;20470;-64
2022/12/24 04:34:35;;;;;;;33.90;5.85;;;11.00;99.90;;;;;;5016195;28;20545;-65
2022/12/24 04:37:02;;;;;;;47.72;8.65;;;11.10;99.90;;;;;;5012909;28;20026;-64
2022/12/24 04:39:30;;;;;;;30.00;5.72;;;11.10;99.90;;;;;;5014448;28;20026;-64
2022/12/24 04:41:56;;;;;;;38.33;6.55;;;11.00;99.90;;;;;;5013567;28;20033;-64
2022/12/24 04:44:22;;;;;;;29.98;5.05;;;11.00;99.90;;;;;;5017670;28;20462;-64
2022/12/24 04:46:48;;;;;;;28.98;5.47;;;11.00;99.90;;;;;;5015851;28;20030;-64
2022/12/24 04:49:14;;;;;;;35.83;6.93;;;10.90;99.90;;;;;;5015094;28;20470;-65
2022/12/24 04:51:39;;;;;;;42.22;6.50;;;11.00;99.90;;;;;;5015573;28;20042;-64
2022/12/24 04:54:05;;;;;;;50.88;8.52;;;10.90;99.90;;;;;;5014268;28;20076;-65
2022/12/24 04:56:32;;;;;;;41.78;6.20;;;11.00;99.90;;;;;;5014099;28;20042;-64
2022/12/24 04:58:59;;;;;;;43.45;6.40;;;10.90;99.90;;;;;;5014766;28;20018;-64
2022/12/24 05:01:31;;;;;;;44.13;8.05;;;10.90;99.90;;;;;;5014252;28;20029;-64
2022/12/24 05:03:57;;;;;;;36.53;6.93;;;10.80;99.90;;;;;;5015093;28;20100;-65
2022/12/24 05:06:28;;;;;;;43.30;7.03;;;10.90;99.90;;;;;;5013238;28;20038;-64
2022/12/24 05:08:55;;;;;;;46.70;7.22;;;10.80;99.90;;;;;;5013865;28;20025;-64
2022/12/24 05:11:21;;;;;;;32.72;4.63;;;10.70;99.90;;;;;;5016058;28;20072;-65
2022/12/24 05:13:47;;;;;;;46.28;7.43;;;10.70;99.90;;;;;;5017694;28;20454;-64
2022/12/24 05:16:15;;;;;;;43.35;7.78;;;10.60;99.90;;;;;;5017302;28;20038;-65
2022/12/24 05:18:41;;;;;;;49.90;6.55;;;10.70;99.90;;;;;;5014156;28;20057;-66
2022/12/24 05:21:16;;;;;;;44.25;5.13;;;10.70;99.90;;;;;;5014123;28;20060;-63
2022/12/24 05:26:35;;;;;;;50.83;6.57;;;10.70;99.90;;;;;;5013497;28;20080;-65
2022/12/24 05:29:02;;;;;;;57.90;7.47;;;10.60;99.90;;;;;;5016222;28;20018;-65
2022/12/24 05:31:29;;;;;;;44.13;6.90;;;10.70;99.90;;;;;;5015137;28;20585;-65
2022/12/24 05:33:55;;;;;;;57.30;7.70;;;10.60;99.90;;;;;;5013899;28;20018;-64
2022/12/24 05:36:22;;;;;;;43.78;7.28;;;10.50;99.90;;;;;;5014982;28;20378;-64
2022/12/24 05:38:48;;;;;;;44.10;7.40;;;10.50;99.90;;;;;;5017118;28;20553;-64
2022/12/24 05:41:15;;;;;;;48.83;6.10;;;10.50;99.90;;;;;;5018609;28;20029;-65
2022/12/24 05:43:41;;;;;;;54.42;8.27;;;10.50;99.90;;;;;;5034427;28;20383;-64
2022/12/24 05:46:09;;;;;;;52.13;8.38;;;10.50;99.90;;;;;;5036355;28;20017;-65
2022/12/24 05:48:35;;;;;;;50.30;6.93;;;10.60;99.90;;;;;;5034037;28;20462;-64
2022/12/24 05:51:09;;;;;;;53.40;6.57;;;10.50;99.90;;;;;;5035948;28;20026;-64
2022/12/24 05:53:36;;;;;;;38.08;7.68;;;10.50;99.90;;;;;;5034564;28;20021;-65
2022/12/24 05:56:07;;;;;;;51.53;7.88;;;10.50;99.90;;;;;;5035543;28;20075;-64
2022/12/24 05:58:34;;;;;;;55.33;9.00;;;10.60;99.90;;;;;;5034113;28;20415;-64
2022/12/24 06:01:01;;;;;;;42.75;5.88;;;10.60;99.90;;;;;;5033256;28;20021;-64
2022/12/24 06:03:29;;;;;;;47.78;8.57;;;10.60;99.90;;;;;;5031826;28;20029;-65
2022/12/24 06:06:03;;;;;;;54.05;8.75;;;10.70;99.90;;;;;;5033214;28;20350;-64
2022/12/24 06:08:31;;;;;;;53.00;7.35;;;10.50;99.90;;;;;;5032816;28;20033;-64
2022/12/24 06:11:01;;;;;;;53.03;7.50;;;10.50;99.90;;;;;;5033135;28;20363;-64
2022/12/24 06:13:28;;;;;;;60.60;9.05;;;10.70;99.90;;;;;;5032867;28;20397;-64
2022/12/24 06:16:02;;;;;;;64.28;9.18;;;10.70;99.90;;;;;;5031648;28;20034;-64
2022/12/24 06:18:29;;;;;;;40.65;7.53;;;10.70;99.90;;;;;;5032097;28;20044;-64
2022/12/24 06:20:56;;;;;;;52.10;7.80;;;10.60;99.90;;;;;;5028092;28;20390;-64
2022/12/24 06:23:22;;;;;;;40.47;7.75;;;10.60;99.90;;;;;;5024019;28;20389;-64
2022/12/24 06:25:49;;;;;;;36.45;6.38;;;10.60;99.90;;;;;;5032911;28;20405;-65
2022/12/24 06:28:15;;;;;;;46.25;6.15;;;10.60;99.90;;;;;;5032949;28;20028;-64
2022/12/24 06:30:46;;;;;;;47.42;8.02;;;10.60;99.90;;;;;;5032681;28;20026;-64
2022/12/24 06:33:11;;;;;;;37.05;5.90;;;10.60;99.90;;;;;;5031302;28;20026;-64
2022/12/24 06:35:37;;;;;;;48.30;5.90;;;10.70;99.90;;;;;;5032985;28;20087;-64
2022/12/24 06:38:03;;;;;;;38.58;6.65;;;10.70;99.90;;;;;;5032927;28;20045;-65
2022/12/24 06:40:29;;;;;;;36.47;6.53;;;10.70;99.90;;;;;;5032786;28;20034;-64
2022/12/24 06:42:55;;;;;;;40.53;8.23;;;10.70;99.90;;;;;;5032563;28;20018;-64
2022/12/24 06:45:21;;;;;;;46.03;6.93;;;10.70;99.90;;;;;;5032758;28;20037;-64
2022/12/24 06:47:47;;;;;;;43.03;5.80;;;10.60;99.90;;;;;;5031580;28;20101;-64
2022/12/24 06:50:12;;;;;;;53.10;7.72;;;10.60;99.90;;;;;;5032194;28;20032;-65
2022/12/24 06:52:38;;;;;;;38.05;7.43;;;10.60;99.90;;;;;;5034194;28;20030;-68
2022/12/24 06:55:05;;;;;;;46.25;6.97;;;10.60;99.90;;;;;;5036267;28;20022;-64
2022/12/24 06:57:31;;;;;;;44.72;7.20;;;10.70;99.90;;;;;;5034793;28;20397;-65
2022/12/24 06:59:57;;;;;;;42.17;7.70;;;10.80;99.90;;;;;;5032465;28;20026;-64
2022/12/24 07:02:23;;;;;;;50.75;7.78;;;10.80;99.90;;;;;;5031140;28;20076;-66
2022/12/24 07:04:49;;;;;;;50.25;8.05;;;10.80;99.90;;;;;;5021970;28;20029;-66
2022/12/24 07:07:15;;;;;;;41.45;8.27;;;10.80;99.90;;;;;;5034981;28;20021;-65
2022/12/24 07:09:41;;;;;;;43.15;8.27;;;10.70;99.90;;;;;;5047761;28;20029;-64
2022/12/24 07:12:07;;;;;;;56.95;9.07;;;10.70;99.90;;;;;;5034376;28;20022;-64
2022/12/24 07:14:33;;;;;;;51.17;7.40;;;10.70;99.90;;;;;;5034956;28;20032;-68
2022/12/24 07:16:59;;;;;;;50.50;8.15;;;10.70;99.90;;;;;;5034497;28;20195;-64
2022/12/24 07:19:25;;;;;;;46.78;7.03;;;10.70;99.90;;;;;;5034207;28;20076;-64
2022/12/24 07:21:51;;;;;;;35.10;7.50;;;10.70;99.90;;;;;;5033571;28;20065;-64
2022/12/24 07:24:17;;;;;;;37.00;8.13;;;10.70;99.90;;;;;;5031804;28;20017;-64
2022/12/24 07:26:43;;;;;;;45.90;7.55;;;10.80;99.90;;;;;;5034705;28;20049;-63
2022/12/24 07:29:08;;;;;;;52.25;7.75;;;10.80;99.90;;;;;;5031680;28;20082;-64
2022/12/24 07:31:34;;;;;;;41.50;7.55;;;10.80;99.90;;;;;;5034162;28;20033;-64
2022/12/24 07:34:00;;;;;;;36.55;5.68;;;10.70;99.90;;;;;;5034453;28;20017;-68
2022/12/24 07:36:27;;;;;;;49.15;8.35;;;10.70;99.90;;;;;;5034103;28;20073;-69
2022/12/24 07:38:53;;;;;;;53.53;7.95;;;10.70;99.90;;;;;;5034785;28;20497;-69
2022/12/24 07:41:19;;;;;;;49.60;6.32;;;10.70;99.90;;;;;;5034045;28;20030;-66
2022/12/24 07:43:45;;;;;;;48.05;7.95;;;10.80;99.90;;;;;;5034238;28;20028;-69
2022/12/24 07:46:12;;;;;;;52.55;8.68;;;10.70;99.90;;;;;;5033943;28;20025;-68
2022/12/24 07:48:38;;;;;;;45.75;7.05;;;10.80;99.90;;;;;;5033829;28;20485;-65
2022/12/24 07:51:04;;;;;;;46.75;7.63;;;10.70;99.90;;;;;;5039266;28;20071;-69
2022/12/24 07:53:30;;;;;;;51.92;9.63;;;10.80;99.90;;;;;;5039465;28;20466;-69
2022/12/24 07:55:57;;;;;;;50.08;8.93;;;10.90;99.90;;;;;;5042054;28;20131;-65
2022/12/24 07:58:24;;;;;;;68.45;9.95;;;10.90;99.90;;;;;;5040361;28;20048;-64
2022/12/24 08:00:59;;;;;;;40.58;6.80;;;10.90;99.90;;;;;;5035173;28;20140;-64
2022/12/24 08:03:26;;;;;;;35.90;5.80;;;10.70;99.90;;;;;;5034641;28;20032;-64
2022/12/24 08:05:52;;;;;;;51.72;7.53;;;10.70;99.90;;;;;;5034127;28;20052;-64
2022/12/24 08:08:18;;;;;;;35.53;5.93;;;10.70;99.90;;;;;;5033742;28;20482;-65
2022/12/24 08:10:45;;;;;;;47.97;8.05;;;10.70;99.90;;;;;;5047662;28;20038;-65
2022/12/24 08:13:11;;;;;;;53.10;8.43;;;10.70;99.90;;;;;;5033495;28;20029;-65
2022/12/24 08:15:37;;;;;;;46.72;7.47;;;10.70;99.90;;;;;;5033072;28;20323;-66
2022/12/24 08:18:03;;;;;;;62.70;8.57;;;10.70;99.90;;;;;;5052190;22;20071;-64
2022/12/24 08:20:29;;;;;;;44.75;7.53;;;10.70;99.90;;;;;;5070371;28;20060;-66
2022/12/24 08:22:55;;;;;;;49.65;9.07;;;10.70;99.90;;;;;;5069494;28;20017;-65
2022/12/24 08:25:20;;;;;;;44.00;5.95;;;10.80;99.90;;;;;;5073980;28;20468;-65
2022/12/24 08:27:46;;;;;;;52.42;7.38;;;10.70;99.90;;;;;;5067142;28;20397;-65
2022/12/24 08:30:13;;;;;;;57.88;7.35;;;10.70;99.90;;;;;;5039189;28;20557;-70
2022/12/24 08:32:39;;;;;;;36.20;6.90;;;10.80;99.90;;;;;;5068298;28;20397;-66
2022/12/24 08:35:05;;;;;;;47.53;7.82;;;10.70;99.90;;;;;;5065716;28;20040;-64
2022/12/24 08:37:31;;;;;;;51.60;7.80;;;10.70;99.90;;;;;;5059989;28;20036;-64
2022/12/24 08:39:57;;;;;;;35.05;5.55;;;10.70;99.90;;;;;;5058324;28;20027;-73
2022/12/24 08:42:23;;;;;;;41.15;6.93;;;10.70;99.90;;;;;;5069744;28;20477;-65
2022/12/24 08:44:48;;;;;;;52.83;9.15;;;10.70;99.90;;;;;;5066882;28;20033;-65
2022/12/24 08:47:14;;;;;;;48.72;7.50;;;10.70;99.90;;;;;;5053170;28;20074;-70
2022/12/24 08:49:40;;;;;;;63.20;7.80;;;10.80;99.90;;;;;;5067396;28;20025;-65
2022/12/24 08:52:06;;;;;;;55.25;7.28;;;10.80;99.90;;;;;;5063446;28;20478;-65
2022/12/24 08:54:32;;;;;;;62.95;7.88;;;10.70;99.90;;;;;;5053886;28;20052;-65
2022/12/24 08:56:57;;;;;;;47.25;7.47;;;10.80;99.90;;;;;;5052605;28;20041;-65
2022/12/24 08:59:23;;;;;;;38.78;5.78;;;10.80;99.90;;;;;;5035307;28;20041;-65
2022/12/24 09:01:49;;;;;;;50.08;8.07;;;10.80;99.90;;;;;;5068046;28;20051;-66
2022/12/24 09:04:15;;;;;;;47.60;6.13;;;10.80;99.90;;;;;;5073544;28;20052;-65
2022/12/24 09:06:40;;;;;;;38.90;7.75;;;10.70;99.90;;;;;;5055130;28;20520;-66
2022/12/24 09:09:06;;;;;;;44.53;7.53;;;10.70;99.90;;;;;;5073921;28;20037;-65
2022/12/24 09:11:34;;;;;;;44.85;6.57;;;10.70;99.90;;;;;;5073409;28;20021;-65
2022/12/24 09:14:00;;;;;;;67.30;7.80;;;10.70;99.90;;;;;;5056038;28;20523;-65
2022/12/24 09:16:26;;;;;;;50.05;7.00;;;10.80;99.90;;;;;;5072949;28;20086;-66
2022/12/24 09:18:52;;;;;;;45.10;7.47;;;10.80;99.90;;;;;;5073434;28;20040;-73
2022/12/24 09:21:18;;;;;;;61.90;9.63;;;10.80;99.90;;;;;;5072842;28;20442;-68
2022/12/24 09:23:45;;;;;;;52.03;7.22;;;10.80;99.90;;;;;;5073875;28;20036;-71
2022/12/24 09:26:23;;;;;;;39.30;5.82;;;10.80;99.90;;;;;;5073556;28;20035;-73
2022/12/24 09:28:50;;;;;;;34.20;6.05;;;10.80;99.90;;;;;;5056004;28;20040;-65
2022/12/24 09:31:16;;;;;;;58.40;6.63;;;10.70;99.90;;;;;;5073620;28;20028;-66
2022/12/24 09:33:44;;;;;;;41.75;7.80;;;10.80;99.90;;;;;;5073625;28;20142;-65
2022/12/24 09:36:10;;;;;;;39.72;8.77;;;10.80;99.90;;;;;;5073339;28;20389;-71
2022/12/24 09:38:38;;;;;;;51.65;9.13;;;10.80;99.90;;;;;;5073565;28;20044;-65
2022/12/24 09:41:31;;;;;;;46.88;7.13;;;10.90;99.90;;;;;;5073276;28;20126;-65
2022/12/24 09:44:22;;;;;;;55.22;7.82;;;11.00;99.90;;;;;;5073408;28;20370;-74
2022/12/24 09:46:51;;;;;;;39.95;6.00;;;11.00;99.90;;;;;;5052714;28;20040;-65
2022/12/24 09:49:22;;;;;;;37.78;6.45;;;11.00;99.90;;;;;;5055219;28;20043;-73
2022/12/24 09:52:05;;;;;;;46.45;6.85;;;10.90;99.90;;;;;;5073516;28;20419;-65
2022/12/24 09:55:11;;;;;;;47.05;7.85;;;10.90;99.90;;;;;;5073155;28;20078;-65
2022/12/24 09:57:40;;;;;;;40.40;6.68;;;11.00;99.90;;;;;;5062472;28;20052;-65
2022/12/24 10:00:35;;;;;;;53.72;7.90;;;11.10;99.90;;;;;;5059224;28;20420;-65
2022/12/24 10:03:01;;;;;;;31.75;6.00;;;11.30;99.90;;;;;;5071931;28;20048;-66
2022/12/24 10:06:00;;;;;;;47.47;8.80;;;11.20;99.90;;;;;;5073759;28;20082;-66
2022/12/24 10:08:40;;;;;;;49.97;5.95;;;11.20;99.90;;;;;;5056090;28;20029;-65
2022/12/24 10:11:10;;;;;;;57.38;9.48;;;11.00;99.90;;;;;;5049041;28;20119;-65
2022/12/24 10:14:03;;;;;;;50.45;7.07;;;11.10;99.90;;;;;;5073794;28;20036;-65
2022/12/24 10:16:41;;;;;;;48.10;8.57;;;11.00;99.90;;;;;;5073325;28;20044;-73
2022/12/24 10:19:09;;;;;;;50.03;8.95;;;11.00;99.90;;;;;;5072881;28;20040;-65
2022/12/24 10:21:44;;;;;;;54.97;12.63;;;11.00;99.90;;;;;;5073339;28;20040;-65
2022/12/24 10:24:18;;;;;;;30.75;6.93;;;11.10;99.90;;;;;;5072735;28;20020;-70
2022/12/24 10:26:49;;;;;;;45.42;9.73;;;11.00;99.90;;;;;;5073449;28;20115;-65
2022/12/24 10:29:22;;;;;;;43.90;9.40;;;11.10;99.90;;;;;;5073325;28;20095;-65
2022/12/24 10:32:06;;;;;;;44.60;10.18;;;11.10;99.90;;;;;;5073414;28;20032;-64
2022/12/24 10:34:45;;;;;;;55.55;7.63;;;11.30;99.90;;;;;;5073110;28;20020;-65
2022/12/24 10:37:21;;;;;;;57.88;9.38;;;11.30;99.90;;;;;;5073081;28;20052;-65
2022/12/24 10:39:47;;;;;;;50.97;7.40;;;11.40;99.90;;;;;;5072584;28;20023;-70
2022/12/24 10:42:15;;;;;;;47.55;9.07;;;11.50;99.90;;;;;;5072818;28;20036;-65
2022/12/24 10:44:45;;;;;;;55.60;8.68;;;11.50;99.90;;;;;;5072440;28;20031;-66
2022/12/24 10:47:11;;;;;;;47.20;7.93;;;11.60;99.90;;;;;;5072684;28;20028;-71
2022/12/24 10:50:01;;;;;;;55.88;8.18;;;11.80;99.90;;;;;;5054444;28;20071;-65
2022/12/24 10:52:34;;;;;;;46.50;8.50;;;11.90;99.90;;;;;;5054428;28;20032;-64
2022/12/24 10:55:18;;;;;;;44.28;9.20;;;11.90;99.90;;;;;;5071681;28;20024;-65
2022/12/24 10:58:19;;;;;;;49.83;7.80;;;11.90;99.90;;;;;;5072640;28;20036;-65
2022/12/24 11:00:50;;;;;;;39.15;6.75;;;12.40;99.90;;;;;;5064139;28;20040;-65
2022/12/24 11:03:23;;;;;;;43.38;11.48;;;12.10;99.90;;;;;;5059255;28;20036;-65
2022/12/24 11:06:06;;;;;;;38.22;8.63;;;12.00;99.90;;;;;;5044953;28;20059;-65
2022/12/24 11:08:33;;;;;;;50.13;9.70;;;12.00;99.90;;;;;;5072036;28;20052;-71
2022/12/24 11:11:06;;;;;;;42.08;7.78;;;12.00;99.90;;;;;;5072275;28;20039;-65
2022/12/24 11:13:35;;;;;;;41.05;8.80;;;11.80;99.90;;;;;;5072576;28;20476;-69
2022/12/24 11:16:29;;;;;;;39.33;7.50;;;11.90;99.90;;;;;;5044674;28;20063;-65
2022/12/24 11:18:58;;;;;;;53.83;8.30;;;11.90;99.90;;;;;;5069108;28;20048;-67
2022/12/24 11:21:31;;;;;;;40.15;7.68;;;12.20;99.90;;;;;;5072174;28;20029;-65
2022/12/24 11:24:02;;;;;;;37.33;8.30;;;12.40;99.90;;;;;;5071970;28;20380;-65
2022/12/24 11:26:29;;;;;;;41.97;9.13;;;12.50;99.90;;;;;;5054281;28;20107;-70
2022/12/24 11:29:15;;;;;;;49.95;8.98;;;13.00;99.90;;;;;;5072446;28;20028;-73
2022/12/24 11:31:45;;;;;;;32.15;6.97;;;13.50;99.90;;;;;;5072234;28;20028;-65
2022/12/24 11:34:30;;;;;;;39.63;8.65;;;13.30;99.90;;;;;;5072160;28;20132;-70
2022/12/24 11:37:09;;;;;;;36.30;7.05;;;13.40;99.90;;;;;;5071891;28;20036;-66
2022/12/24 11:39:40;;;;;;;43.72;6.55;;;13.20;99.90;;;;;;5073678;28;20078;-66
2022/12/24 11:42:19;;;;;;;33.85;5.53;;;12.80;99.90;;;;;;5075715;28;20040;-65
2022/12/24 11:44:49;;;;;;;54.28;8.70;;;12.50;99.90;;;;;;5075653;28;20028;-69
2022/12/24 11:47:15;;;;;;;34.10;5.63;;;12.50;99.90;;;;;;5075828;28;20504;-70
2022/12/24 11:49:40;;;;;;;50.60;8.30;;;12.40;99.90;;;;;;5075826;28;20058;-64
2022/12/24 11:52:09;;;;;;;46.17;8.25;;;12.30;99.90;;;;;;5075320;28;20033;-72
2022/12/24 11:54:54;;;;;;;47.38;8.43;;;12.40;99.90;;;;;;5075555;28;20021;-65
2022/12/24 11:57:24;;;;;;;47.78;8.38;;;12.30;99.90;;;;;;5075644;28;20396;-66
2022/12/24 11:59:51;;;;;;;52.95;11.40;;;12.10;99.90;;;;;;5062304;28;20024;-71
2022/12/24 12:02:36;;;;;;;44.33;9.85;;;12.30;99.90;;;;;;5077159;28;20027;-64
2022/12/24 12:05:18;;;;;;;41.90;8.00;;;12.20;99.90;;;;;;5059108;28;20020;-71
2022/12/24 12:07:49;;;;;;;44.42;6.07;;;12.30;99.90;;;;;;5077192;28;20028;-68
2022/12/24 12:10:19;;;;;;;35.05;8.10;;;12.40;99.90;;;;;;5076424;28;20036;-65
2022/12/24 12:12:55;;;;;;;37.15;7.07;;;12.70;99.90;;;;;;5080398;28;20035;-74
2022/12/24 12:15:31;;;;;;;40.15;8.55;;;13.30;99.90;;;;;;5078408;28;20029;-70
2022/12/24 12:18:10;;;;;;;38.50;7.88;;;13.30;99.90;;;;;;5078356;28;20362;-65
2022/12/24 12:20:47;;;;;;;33.92;7.78;;;13.20;99.90;;;;;;5042494;28;20466;-71
2022/12/24 12:23:24;;;;;;;50.80;8.65;;;13.10;99.90;;;;;;5057225;28;20071;-68
2022/12/24 12:26:00;;;;;;;50.58;7.85;;;13.20;99.90;;;;;;5074841;28;20032;-73
2022/12/24 12:28:35;;;;;;;45.75;8.63;;;13.40;99.90;;;;;;5074971;28;20032;-72
2022/12/24 12:31:28;;;;;;;39.40;7.57;;;13.40;99.90;;;;;;5056626;28;20032;-69
2022/12/24 12:34:02;;;;;;;42.38;7.35;;;13.40;99.90;;;;;;5075121;28;20111;-68
2022/12/24 12:36:35;;;;;;;48.03;8.00;;;13.40;99.90;;;;;;5074221;28;20071;-72
2022/12/24 12:39:01;;;;;;;38.33;7.85;;;13.70;99.90;;;;;;5074895;28;20032;-69
2022/12/24 12:41:48;;;;;;;32.58;6.38;;;13.00;99.90;;;;;;5074435;28;20357;-70
2022/12/24 12:44:43;;;;;;;32.70;7.57;;;12.60;99.90;;;;;;5074678;28;20116;-69
2022/12/24 12:47:32;;;;;;;40.42;6.20;;;12.70;99.90;;;;;;5074716;28;20023;-71
2022/12/24 12:50:16;;;;;;;38.95;8.23;;;12.60;99.90;;;;;;5039901;28;20048;-67
2022/12/24 12:52:56;;;;;;;45.53;8.23;;;12.60;99.90;;;;;;5074276;28;20032;-71
2022/12/24 12:55:40;;;;;;;40.60;7.25;;;12.80;99.90;;;;;;5074696;28;20036;-72
2022/12/24 12:58:42;;;;;;;36.20;7.60;;;12.90;99.90;;;;;;5074135;28;20075;-71